createdAt,value
2023-07-18T00:01:09.690Z,5.55
2023-07-18T00:02:42.198Z,5.32
2023-07-18T00:04:14.036Z,5.10
2023-07-18T00:05:46.128Z,5.18
2023-07-18T00:07:17.752Z,4.88
2023-07-18T00:08:49.356Z,5.07
2023-07-18T00:10:21.189Z,5.18
2023-07-18T00:11:52.839Z,5.38
2023-07-18T00:13:24.608Z,5.03
2023-07-18T00:14:56.279Z,5.43
2023-07-18T00:16:29.356Z,4.90
2023-07-18T00:18:03.328Z,5.18
2023-07-18T00:19:35.381Z,5.15
2023-07-18T00:21:07.081Z,5.40
2023-07-18T00:22:38.885Z,4.88
2023-07-18T00:24:10.562Z,5.00
2023-07-18T00:25:42.462Z,5.40
2023-07-18T00:27:17.662Z,5.40
2023-07-18T00:28:54.442Z,5.70
2023-07-18T00:30:27.415Z,5.13
2023-07-18T00:32:00.516Z,5.40
2023-07-18T00:33:32.293Z,5.00
2023-07-18T00:35:05.307Z,5.18
2023-07-18T00:36:37.566Z,5.60
2023-07-18T00:38:09.273Z,5.30
2023-07-18T00:39:40.879Z,5.97
2023-07-18T00:41:12.761Z,5.97
2023-07-18T00:42:46.524Z,5.55
2023-07-18T00:44:18.267Z,5.38
2023-07-18T00:45:49.885Z,5.95
2023-07-18T00:47:26.108Z,5.50
2023-07-18T00:48:58.381Z,5.57
2023-07-18T00:50:30.242Z,5.47
2023-07-18T00:52:02.294Z,5.43
2023-07-18T00:53:34.354Z,5.70
2023-07-18T00:55:06.669Z,5.63
2023-07-18T00:56:38.283Z,5.00
2023-07-18T00:58:09.964Z,5.50
2023-07-18T00:59:41.613Z,5.43
2023-07-18T01:01:13.249Z,5.65
2023-07-18T01:02:46.513Z,5.80
2023-07-18T01:04:19.565Z,6.45
2023-07-18T01:05:51.180Z,6.22
2023-07-18T01:07:22.881Z,5.80
2023-07-18T01:08:54.559Z,5.47
2023-07-18T01:10:27.083Z,5.43
2023-07-18T01:11:58.792Z,5.35
2023-07-18T01:13:30.538Z,5.65
2023-07-18T01:15:02.564Z,5.40
2023-07-18T01:16:34.181Z,5.55
2023-07-18T01:18:10.244Z,5.70
2023-07-18T01:19:42.996Z,5.45
2023-07-18T01:21:19.264Z,5.75
2023-07-18T01:22:52.423Z,5.47
2023-07-18T01:24:24.136Z,5.80
2023-07-18T01:25:56.901Z,5.43
2023-07-18T01:27:28.516Z,6.05
2023-07-18T01:29:00.215Z,5.60
2023-07-18T01:30:32.034Z,5.30
2023-07-18T01:32:04.193Z,6.30
2023-07-18T01:33:35.810Z,5.90
2023-07-18T01:35:09.298Z,5.60
2023-07-18T01:36:42.394Z,5.70
2023-07-18T01:38:14.085Z,5.85
2023-07-18T01:39:46.070Z,6.00
2023-07-18T01:41:17.845Z,5.60
2023-07-18T01:42:52.662Z,5.35
2023-07-18T01:44:24.457Z,5.85
2023-07-18T01:45:58.598Z,5.50
2023-07-18T01:47:31.228Z,5.68
2023-07-18T01:49:02.909Z,5.18
2023-07-18T01:50:34.644Z,5.50
2023-07-18T01:52:07.836Z,5.65
2023-07-18T01:53:39.447Z,5.72
2023-07-18T01:55:11.244Z,5.60
2023-07-18T01:56:42.931Z,5.45
2023-07-18T01:58:14.549Z,5.40
2023-07-18T01:59:46.243Z,5.30
2023-07-18T02:01:18.125Z,5.60
2023-07-18T02:02:50.720Z,5.95
2023-07-18T02:04:22.511Z,5.20
2023-07-18T02:05:54.122Z,5.60
2023-07-18T02:07:28.206Z,5.38
2023-07-18T02:09:00.806Z,5.22
2023-07-18T02:10:32.439Z,5.30
2023-07-18T02:12:04.548Z,5.20
2023-07-18T02:13:36.546Z,5.35
2023-07-18T02:15:09.565Z,5.28
2023-07-18T02:16:41.216Z,5.25
2023-07-18T02:18:12.876Z,5.43
2023-07-18T02:19:44.609Z,5.20
2023-07-18T02:21:16.412Z,5.10
2023-07-18T02:22:49.774Z,4.75
2023-07-18T02:24:21.449Z,5.20
2023-07-18T02:25:53.075Z,5.40
2023-07-18T02:27:24.866Z,5.15
2023-07-18T02:28:56.961Z,4.93
2023-07-18T02:30:28.590Z,5.20
2023-07-18T02:32:00.892Z,4.70
2023-07-18T02:33:32.644Z,5.07
2023-07-18T02:35:04.791Z,4.82
2023-07-18T02:36:36.405Z,4.85
2023-07-18T02:38:09.676Z,4.70
2023-07-18T02:39:45.744Z,4.85
2023-07-18T02:41:18.842Z,4.75
2023-07-18T02:42:50.683Z,4.68
2023-07-18T02:44:22.301Z,4.82
2023-07-18T02:45:53.954Z,4.93
2023-07-18T02:47:25.604Z,4.30
2023-07-18T02:48:57.739Z,4.60
2023-07-18T02:50:29.346Z,4.45
2023-07-18T02:52:01.077Z,4.65
2023-07-18T02:53:34.253Z,4.40
2023-07-18T02:55:07.175Z,4.40
2023-07-18T02:56:38.884Z,5.25
2023-07-18T02:58:10.694Z,4.30
2023-07-18T02:59:42.366Z,4.03
2023-07-18T03:01:13.972Z,4.88
2023-07-18T03:02:46.681Z,3.92
2023-07-18T03:04:18.431Z,4.40
2023-07-18T03:05:52.220Z,4.35
2023-07-18T03:07:23.830Z,4.25
2023-07-18T03:08:56.977Z,4.50
2023-07-18T03:10:29.007Z,4.72
2023-07-18T03:12:00.651Z,4.10
2023-07-18T03:13:32.882Z,4.05
2023-07-18T03:15:05.860Z,4.05
2023-07-18T03:16:37.533Z,4.00
2023-07-18T03:18:09.255Z,3.70
2023-07-18T03:19:41.267Z,3.90
2023-07-18T03:21:12.988Z,3.78
2023-07-18T03:22:45.336Z,3.90
2023-07-18T03:24:19.572Z,3.70
2023-07-18T03:25:51.304Z,3.58
2023-07-18T03:27:22.886Z,3.20
2023-07-18T03:28:56.247Z,3.50
2023-07-18T03:30:27.894Z,3.55
2023-07-18T03:32:00.699Z,3.70
2023-07-18T03:33:32.809Z,3.40
2023-07-18T03:35:05.164Z,3.90
2023-07-18T03:36:38.380Z,3.90
2023-07-18T03:38:10.234Z,3.40
2023-07-18T03:39:43.208Z,3.72
2023-07-18T03:41:15.216Z,3.38
2023-07-18T03:42:47.042Z,3.88
2023-07-18T03:44:18.902Z,3.65
2023-07-18T03:45:51.546Z,3.55
2023-07-18T03:47:23.200Z,3.30
2023-07-18T03:48:54.970Z,3.55
2023-07-18T03:50:26.694Z,3.58
2023-07-18T03:51:58.372Z,3.67
2023-07-18T03:53:30.038Z,3.50
2023-07-18T03:55:04.426Z,3.35
2023-07-18T03:56:36.133Z,3.40
2023-07-18T03:58:07.730Z,3.40
2023-07-18T03:59:39.638Z,3.33
2023-07-18T04:01:11.602Z,3.80
2023-07-18T04:02:46.501Z,3.40
2023-07-18T04:04:18.750Z,3.42
2023-07-18T04:05:52.446Z,3.65
2023-07-18T04:07:24.969Z,3.58
2023-07-18T04:08:56.747Z,3.38
2023-07-18T04:10:29.749Z,3.28
2023-07-18T04:12:01.406Z,3.15
2023-07-18T04:13:33.602Z,3.42
2023-07-18T04:15:06.669Z,3.10
2023-07-18T04:16:39.072Z,3.28
2023-07-18T04:18:10.836Z,3.45
2023-07-18T04:19:42.475Z,3.33
2023-07-18T04:21:14.116Z,3.30
2023-07-18T04:22:45.788Z,3.63
2023-07-18T04:24:17.517Z,3.13
2023-07-18T04:25:58.338Z,3.35
2023-07-18T04:27:30.041Z,3.38
2023-07-18T04:29:01.673Z,3.50
2023-07-18T04:30:33.397Z,3.03
2023-07-18T04:32:06.077Z,3.33
2023-07-18T04:33:38.893Z,3.40
2023-07-18T04:35:10.587Z,3.08
2023-07-18T04:36:42.745Z,3.15
2023-07-18T04:38:14.992Z,3.30
2023-07-18T04:39:46.654Z,3.17
2023-07-18T04:41:20.044Z,3.28
2023-07-18T04:42:52.034Z,3.53
2023-07-18T04:44:24.024Z,3.28
2023-07-18T04:45:55.941Z,3.20
2023-07-18T04:47:27.840Z,3.38
2023-07-18T04:48:59.918Z,3.20
2023-07-18T04:50:31.665Z,3.30
2023-07-18T04:52:03.996Z,2.90
2023-07-18T04:53:35.725Z,3.17
2023-07-18T04:55:07.968Z,3.38
2023-07-18T04:56:40.938Z,3.10
2023-07-18T04:58:12.592Z,3.40
2023-07-18T04:59:44.320Z,3.25
2023-07-18T05:01:16.059Z,3.17
2023-07-18T05:02:47.965Z,2.92
2023-07-18T05:04:20.009Z,3.30
2023-07-18T05:05:51.683Z,3.20
2023-07-18T05:07:24.147Z,3.28
2023-07-18T05:08:55.788Z,2.88
2023-07-18T05:10:27.494Z,3.40
2023-07-18T05:12:00.807Z,3.30
2023-07-18T05:13:32.459Z,3.25
2023-07-18T05:15:04.673Z,3.05
2023-07-18T05:16:36.700Z,3.08
2023-07-18T05:18:08.412Z,3.05
2023-07-18T05:19:40.047Z,3.22
2023-07-18T05:21:11.669Z,3.30
2023-07-18T05:22:44.267Z,3.20
2023-07-18T05:24:16.209Z,2.95
2023-07-18T05:25:47.823Z,3.22
2023-07-18T05:27:22.659Z,3.35
2023-07-18T05:28:54.766Z,2.95
2023-07-18T05:30:26.588Z,3.40
2023-07-18T05:31:58.488Z,3.08
2023-07-18T05:33:30.186Z,3.22
2023-07-18T05:35:01.847Z,3.17
2023-07-18T05:36:33.491Z,3.22
2023-07-18T05:38:05.092Z,3.25
2023-07-18T05:39:36.722Z,3.05
2023-07-18T05:41:08.351Z,3.08
2023-07-18T05:42:41.915Z,3.30
2023-07-18T05:44:13.579Z,3.03
2023-07-18T05:45:45.322Z,3.00
2023-07-18T05:47:16.928Z,3.20
2023-07-18T05:48:48.748Z,3.22
2023-07-18T05:50:20.435Z,3.47
2023-07-18T05:51:53.131Z,3.47
2023-07-18T05:53:25.791Z,3.28
2023-07-18T05:54:57.642Z,3.47
2023-07-18T05:56:29.275Z,3.03
2023-07-18T05:58:02.396Z,3.38
2023-07-18T05:59:35.727Z,3.30
2023-07-18T06:01:10.309Z,3.40
2023-07-18T06:02:42.973Z,3.55
2023-07-18T06:04:17.327Z,3.45
2023-07-18T06:05:54.139Z,3.22
2023-07-18T06:07:25.857Z,2.88
2023-07-18T06:08:57.522Z,3.13
2023-07-18T06:10:29.807Z,3.00
2023-07-18T06:12:01.522Z,3.38
2023-07-18T06:13:34.714Z,3.97
2023-07-18T06:15:07.758Z,3.67
2023-07-18T06:16:39.988Z,3.60
2023-07-18T06:18:11.696Z,4.00
2023-07-18T06:19:43.361Z,3.40
2023-07-18T06:21:17.176Z,3.35
2023-07-18T06:22:49.080Z,3.80
2023-07-18T06:24:21.103Z,3.63
2023-07-18T06:25:54.386Z,3.70
2023-07-18T06:27:27.862Z,3.70
2023-07-18T06:29:00.887Z,3.55
2023-07-18T06:30:32.953Z,3.50
2023-07-18T06:32:06.928Z,3.20
2023-07-18T06:33:38.764Z,3.80
2023-07-18T06:35:22.844Z,3.60
2023-07-18T06:36:55.625Z,3.63
2023-07-18T06:38:27.370Z,3.40
2023-07-18T06:39:59.000Z,3.80
2023-07-18T06:41:30.745Z,3.42
2023-07-18T06:43:02.617Z,3.88
2023-07-18T06:44:35.629Z,3.53
2023-07-18T06:46:08.592Z,3.60
2023-07-18T06:47:40.432Z,3.53
2023-07-18T06:49:12.872Z,4.10
2023-07-18T06:50:45.608Z,3.38
2023-07-18T06:52:17.258Z,4.15
2023-07-18T06:53:48.921Z,4.90
2023-07-18T06:55:20.548Z,4.40
2023-07-18T06:56:52.432Z,4.95
2023-07-18T06:58:26.250Z,4.78
2023-07-18T06:59:59.234Z,4.60
2023-07-18T07:01:31.342Z,4.57
2023-07-18T07:03:03.133Z,4.40
2023-07-18T07:04:35.879Z,5.22
2023-07-18T07:06:10.837Z,5.10
2023-07-18T07:07:42.618Z,5.40
2023-07-18T07:09:14.845Z,4.82
2023-07-18T07:10:46.665Z,4.90
2023-07-18T07:12:30.693Z,5.32
2023-07-18T07:14:07.839Z,4.90
2023-07-18T07:15:41.386Z,5.50
2023-07-18T07:17:13.105Z,5.25
2023-07-18T07:18:44.744Z,5.10
2023-07-18T07:20:16.614Z,5.05
2023-07-18T07:21:48.228Z,5.47
2023-07-18T07:23:19.889Z,5.95
2023-07-18T07:24:51.581Z,5.88
2023-07-18T07:26:23.191Z,6.03
2023-07-18T07:27:54.896Z,5.57
2023-07-18T07:29:27.510Z,5.55
2023-07-18T07:31:02.126Z,5.43
2023-07-18T07:32:33.873Z,5.78
2023-07-18T07:34:05.554Z,5.10
2023-07-18T07:35:37.179Z,4.95
2023-07-18T07:37:09.857Z,5.18
2023-07-18T07:38:41.728Z,5.47
2023-07-18T07:40:13.498Z,5.38
2023-07-18T07:41:45.978Z,4.78
2023-07-18T07:43:17.686Z,4.03
2023-07-18T07:44:49.737Z,4.05
2023-07-18T07:46:22.856Z,4.22
2023-07-18T07:47:54.763Z,4.05
2023-07-18T07:49:26.402Z,4.10
2023-07-18T07:50:58.324Z,4.55
2023-07-18T07:52:29.914Z,5.40
2023-07-18T07:54:01.564Z,4.50
2023-07-18T07:55:33.201Z,4.65
2023-07-18T07:57:06.575Z,4.90
2023-07-18T07:58:38.216Z,4.13
2023-07-18T08:00:11.192Z,4.25
2023-07-18T08:01:44.351Z,4.20
2023-07-18T08:03:15.994Z,4.30
2023-07-18T08:04:48.087Z,4.43
2023-07-18T08:06:20.048Z,4.25
2023-07-18T08:07:51.687Z,4.60
2023-07-18T08:09:23.456Z,5.05
2023-07-18T08:10:55.162Z,5.18
2023-07-18T08:12:27.318Z,5.20
2023-07-18T08:13:58.964Z,4.40
2023-07-18T08:15:30.619Z,4.32
2023-07-18T08:17:04.576Z,4.90
2023-07-18T08:18:37.488Z,4.40
2023-07-18T08:20:10.046Z,4.43
2023-07-18T08:21:41.641Z,4.28
2023-07-18T08:23:13.722Z,4.70
2023-07-18T08:24:45.467Z,4.70
2023-07-18T08:26:17.084Z,4.80
2023-07-18T08:27:48.711Z,5.35
2023-07-18T08:29:20.521Z,4.70
2023-07-18T08:30:52.242Z,4.70
2023-07-18T08:32:28.889Z,4.25
2023-07-18T08:34:01.700Z,4.60
2023-07-18T08:35:33.395Z,4.43
2023-07-18T08:37:06.760Z,4.88
2023-07-18T08:38:38.546Z,4.78
2023-07-18T08:40:11.202Z,4.70
2023-07-18T08:41:44.954Z,4.75
2023-07-18T08:43:19.331Z,4.72
2023-07-18T08:44:51.006Z,4.60
2023-07-18T08:46:22.696Z,4.97
2023-07-18T08:47:57.702Z,5.05
2023-07-18T08:49:30.888Z,4.47
2023-07-18T08:51:02.655Z,5.07
2023-07-18T08:52:34.355Z,4.78
2023-07-18T08:54:06.036Z,4.70
2023-07-18T08:55:38.031Z,4.32
2023-07-18T08:57:09.964Z,4.22
2023-07-18T08:58:41.691Z,4.82
2023-07-18T09:00:15.841Z,4.43
2023-07-18T09:01:48.064Z,4.47
2023-07-18T09:03:21.177Z,4.25
2023-07-18T09:04:52.822Z,4.57
2023-07-18T09:06:25.568Z,4.75
2023-07-18T09:07:57.642Z,4.90
2023-07-18T09:09:29.267Z,4.50
2023-07-18T09:11:02.058Z,4.63
2023-07-18T09:12:35.903Z,4.90
2023-07-18T09:14:07.576Z,4.68
2023-07-18T09:15:39.209Z,4.97
2023-07-18T09:17:11.063Z,4.57
2023-07-18T09:18:47.519Z,4.70
2023-07-18T09:20:20.362Z,4.85
2023-07-18T09:21:58.656Z,4.67
2023-07-18T09:23:30.272Z,4.93
2023-07-18T09:25:01.956Z,5.03
2023-07-18T09:26:33.637Z,5.38
2023-07-18T09:28:05.306Z,5.00
2023-07-18T09:29:37.080Z,5.50
2023-07-18T09:31:19.196Z,5.47
2023-07-18T09:32:54.344Z,5.50
2023-07-18T09:34:28.428Z,7.40
2023-07-18T09:36:00.271Z,6.33
2023-07-18T09:37:31.959Z,5.60
2023-07-18T09:39:03.687Z,6.33
2023-07-18T09:40:35.617Z,5.60
2023-07-18T09:42:10.746Z,5.03
2023-07-18T09:43:49.007Z,5.23
2023-07-18T09:45:20.986Z,5.43
2023-07-18T09:46:52.833Z,5.20
2023-07-18T09:48:25.108Z,5.87
2023-07-18T09:49:58.151Z,5.50
2023-07-18T09:51:31.653Z,5.47
2023-07-18T09:53:03.289Z,5.20
2023-07-18T09:54:34.983Z,5.60
2023-07-18T09:56:07.582Z,5.57
2023-07-18T09:57:41.313Z,5.50
2023-07-18T09:59:13.143Z,5.53
2023-07-18T10:00:46.798Z,5.43
2023-07-18T10:02:19.914Z,5.33
2023-07-18T10:03:55.476Z,5.30
2023-07-18T10:05:28.738Z,5.60
2023-07-18T10:07:00.437Z,5.40
2023-07-18T10:08:32.289Z,5.40
2023-07-18T10:10:05.345Z,5.77
2023-07-18T10:12:07.241Z,6.33
2023-07-18T10:13:43.212Z,5.50
2023-07-18T10:15:15.049Z,5.70
2023-07-18T10:16:49.350Z,5.77
2023-07-18T10:18:23.546Z,5.77
2023-07-18T10:19:55.796Z,5.47
2023-07-18T10:21:30.046Z,5.43
2023-07-18T10:23:01.792Z,5.37
2023-07-18T10:24:33.873Z,5.30
2023-07-18T10:26:08.127Z,5.60
2023-07-18T10:27:43.527Z,5.20
2023-07-18T10:29:15.241Z,5.90
2023-07-18T10:30:47.566Z,5.20
2023-07-18T10:32:20.845Z,5.33
2023-07-18T10:34:06.035Z,5.30
2023-07-18T10:35:39.494Z,5.20
2023-07-18T10:37:12.597Z,5.23
2023-07-18T10:38:44.242Z,5.37
2023-07-18T10:40:31.454Z,4.97
2023-07-18T10:42:06.287Z,4.87
2023-07-18T10:43:47.253Z,4.70
2023-07-18T10:45:19.006Z,5.47
2023-07-18T10:46:50.677Z,5.83
2023-07-18T10:48:22.396Z,5.60
2023-07-18T10:49:54.275Z,5.37
2023-07-18T10:51:25.951Z,5.43
2023-07-18T10:52:59.099Z,5.57
2023-07-18T10:54:30.730Z,5.40
2023-07-18T10:56:02.799Z,5.53
2023-07-18T10:57:36.075Z,5.17
2023-07-18T10:59:07.798Z,5.67
2023-07-18T11:00:40.552Z,5.60
2023-07-18T11:02:12.310Z,5.93
2023-07-18T11:03:46.350Z,6.27
2023-07-18T11:05:18.129Z,6.10
2023-07-18T11:06:50.386Z,5.50
2023-07-18T11:08:27.059Z,6.10
2023-07-18T11:09:58.764Z,5.50
2023-07-18T11:11:30.442Z,6.07
2023-07-18T11:13:02.060Z,5.47
2023-07-18T11:14:40.037Z,5.80
2023-07-18T11:16:12.670Z,5.67
2023-07-18T11:17:44.789Z,5.87
2023-07-18T11:19:17.007Z,5.87
2023-07-18T11:20:48.838Z,5.73
2023-07-18T11:22:20.434Z,5.27
2023-07-18T11:23:55.747Z,5.20
2023-07-18T11:25:27.385Z,5.50
2023-07-18T11:27:15.729Z,5.77
2023-07-18T11:28:52.569Z,5.67
2023-07-18T11:30:24.316Z,6.27
2023-07-18T11:32:02.180Z,5.87
2023-07-18T11:33:34.129Z,5.47
2023-07-18T11:35:07.707Z,5.80
2023-07-18T11:36:40.868Z,5.77
2023-07-18T11:38:13.027Z,5.40
2023-07-18T11:39:49.014Z,6.00
2023-07-18T11:41:33.723Z,6.30
2023-07-18T11:43:05.675Z,5.80
2023-07-18T11:44:42.885Z,6.38
2023-07-18T11:46:14.869Z,6.00
2023-07-18T11:47:48.085Z,5.97
2023-07-18T11:49:33.026Z,5.80
2023-07-18T11:51:05.252Z,5.85
2023-07-18T11:52:36.910Z,5.80
2023-07-18T11:54:08.926Z,5.80
2023-07-18T11:55:42.046Z,5.65
2023-07-18T11:57:13.792Z,5.80
2023-07-18T11:58:45.572Z,5.60
2023-07-18T12:00:17.951Z,6.20
2023-07-18T12:01:49.644Z,6.20
2023-07-18T12:03:21.416Z,6.30
2023-07-18T12:04:53.411Z,6.28
2023-07-18T12:06:25.090Z,5.72
2023-07-18T12:07:56.753Z,6.05
2023-07-18T12:09:28.352Z,6.07
2023-07-18T12:11:09.447Z,5.88
2023-07-18T12:12:41.650Z,6.90
2023-07-18T12:14:13.352Z,6.60
2023-07-18T12:15:45.019Z,6.50
2023-07-18T12:17:16.777Z,5.97
2023-07-18T12:18:48.391Z,6.40
2023-07-18T12:20:20.381Z,6.07
2023-07-18T12:21:52.241Z,6.10
2023-07-18T12:23:24.961Z,5.82
2023-07-18T12:24:56.753Z,6.07
2023-07-18T12:26:29.870Z,5.95
2023-07-18T12:28:01.739Z,5.65
2023-07-18T12:29:33.337Z,5.80
2023-07-18T12:31:08.019Z,6.37
2023-07-18T12:32:39.997Z,7.97
2023-07-18T12:34:11.905Z,7.20
2023-07-18T12:35:43.768Z,6.80
2023-07-18T12:37:15.509Z,6.47
2023-07-18T12:38:47.907Z,6.35
2023-07-18T12:40:19.609Z,5.90
2023-07-18T12:41:52.672Z,6.40
2023-07-18T12:43:24.299Z,5.80
2023-07-18T12:44:55.984Z,6.00
2023-07-18T12:46:28.292Z,6.30
2023-07-18T12:48:00.232Z,6.00
2023-07-18T12:51:07.007Z,6.20
2023-07-18T12:52:39.279Z,6.30
2023-07-18T12:54:11.236Z,5.87
2023-07-18T12:55:42.862Z,6.03
2023-07-18T12:57:15.802Z,6.60
2023-07-18T12:58:47.440Z,5.93
2023-07-18T13:00:20.454Z,6.20
2023-07-18T13:01:52.143Z,6.13
2023-07-18T13:03:23.862Z,6.67
2023-07-18T13:04:55.588Z,6.50
2023-07-18T13:06:27.227Z,6.60
2023-07-18T13:07:58.855Z,6.40
2023-07-18T13:09:31.742Z,6.20
2023-07-18T13:11:03.441Z,6.40
2023-07-18T13:12:36.493Z,6.40
2023-07-18T13:14:08.154Z,6.27
2023-07-18T13:15:39.801Z,6.17
2023-07-18T13:17:11.461Z,6.83
2023-07-18T13:18:43.074Z,6.30
2023-07-18T13:20:14.967Z,6.40
2023-07-18T13:21:46.702Z,6.63
2023-07-18T13:23:18.581Z,6.33
2023-07-18T13:24:50.405Z,6.67
2023-07-18T13:26:22.535Z,6.67
2023-07-18T13:27:55.998Z,6.63
2023-07-18T13:29:27.762Z,7.00
2023-07-18T13:30:59.434Z,6.13
2023-07-18T13:32:31.631Z,7.00
2023-07-18T13:34:03.639Z,6.53
2023-07-18T13:35:35.662Z,7.10
2023-07-18T13:37:07.334Z,7.37
2023-07-18T13:38:39.076Z,7.23
2023-07-18T13:40:11.363Z,7.37
2023-07-18T13:41:43.058Z,7.53
2023-07-18T13:43:15.998Z,8.10
2023-07-18T13:44:47.619Z,7.53
2023-07-18T13:46:19.690Z,7.63
2023-07-18T13:47:52.028Z,7.88
2023-07-18T13:49:24.132Z,8.40
2023-07-18T13:50:56.010Z,8.37
2023-07-18T13:52:28.250Z,7.53
2023-07-18T13:53:59.970Z,7.83
2023-07-18T13:55:31.772Z,7.80
2023-07-18T13:57:04.379Z,7.07
2023-07-18T13:58:38.248Z,7.00
2023-07-18T14:00:11.352Z,7.33
2023-07-18T14:01:43.033Z,7.07
2023-07-18T14:03:32.137Z,7.27
2023-07-18T14:05:06.443Z,7.30
2023-07-18T14:06:38.502Z,7.20
2023-07-18T14:08:10.181Z,7.13
2023-07-18T14:09:41.839Z,7.10
2023-07-18T14:11:13.482Z,7.00
2023-07-18T14:12:46.399Z,7.07
2023-07-18T14:14:19.397Z,6.97
2023-07-18T14:15:51.586Z,6.67
2023-07-18T14:17:23.373Z,6.90
2023-07-18T14:18:57.480Z,6.17
2023-07-18T14:20:29.201Z,6.97
2023-07-18T14:22:00.825Z,6.90
2023-07-18T14:23:32.570Z,6.87
2023-07-18T14:25:04.940Z,6.60
2023-07-18T14:26:36.928Z,6.17
2023-07-18T14:28:08.792Z,6.37
2023-07-18T14:29:42.293Z,5.90
2023-07-18T14:31:14.460Z,6.30
2023-07-18T14:32:46.185Z,5.80
2023-07-18T14:34:18.011Z,6.23
2023-07-18T14:35:49.739Z,6.70
2023-07-18T14:37:23.896Z,6.30
2023-07-18T14:38:55.804Z,6.40
2023-07-18T14:40:27.456Z,6.67
2023-07-18T14:41:59.487Z,5.80
2023-07-18T14:43:32.020Z,5.63
2023-07-18T14:45:06.248Z,6.07
2023-07-18T14:46:38.113Z,5.60
2023-07-18T14:48:09.986Z,5.63
2023-07-18T14:49:41.800Z,5.77
2023-07-18T14:51:13.469Z,5.80
2023-07-18T14:52:45.165Z,5.47
2023-07-18T14:54:17.918Z,6.00
2023-07-18T14:55:49.608Z,5.60
2023-07-18T14:57:21.376Z,5.43
2023-07-18T14:58:53.031Z,4.63
2023-07-18T15:00:26.253Z,5.10
2023-07-18T15:01:58.057Z,4.87
2023-07-18T15:03:30.020Z,4.77
2023-07-18T15:05:02.119Z,5.50
2023-07-18T15:06:33.779Z,5.47
2023-07-18T15:08:05.427Z,5.30
2023-07-18T15:09:37.233Z,5.30
2023-07-18T15:11:10.434Z,5.53
2023-07-18T15:12:44.343Z,5.50
2023-07-18T15:14:16.269Z,5.00
2023-07-18T15:15:49.258Z,5.50
2023-07-18T15:17:20.936Z,5.40
2023-07-18T15:18:52.646Z,5.50
2023-07-18T15:20:24.322Z,6.10
2023-07-18T15:21:56.367Z,5.50
2023-07-18T15:23:28.163Z,5.30
2023-07-18T15:25:00.374Z,5.50
2023-07-18T15:26:32.049Z,5.40
2023-07-18T15:28:03.933Z,4.90
2023-07-18T15:29:35.846Z,5.10
2023-07-18T15:31:08.958Z,5.57
2023-07-18T15:32:42.087Z,4.83
2023-07-18T15:34:14.993Z,4.67
2023-07-18T15:35:46.685Z,4.30
2023-07-18T15:37:18.389Z,5.00
2023-07-18T15:38:50.182Z,5.03
2023-07-18T15:40:22.179Z,4.60
2023-07-18T15:41:53.865Z,4.80
2023-07-18T15:43:25.608Z,5.17
2023-07-18T15:44:57.300Z,4.67
2023-07-18T15:46:30.562Z,5.00
2023-07-18T15:48:02.362Z,5.20
2023-07-18T15:49:36.022Z,4.60
2023-07-18T15:51:07.641Z,4.80
2023-07-18T15:52:39.250Z,4.90
2023-07-18T15:54:13.122Z,4.73
2023-07-18T15:55:44.920Z,4.93
2023-07-18T15:57:16.534Z,4.27
2023-07-18T15:58:48.292Z,4.40
2023-07-18T16:00:20.156Z,4.50
2023-07-18T16:01:55.001Z,4.90
2023-07-18T16:03:26.912Z,4.40
2023-07-18T16:04:59.005Z,4.23
2023-07-18T16:06:30.838Z,4.53
2023-07-18T16:08:02.637Z,4.67
2023-07-18T16:09:47.377Z,4.80
2023-07-18T16:11:19.485Z,4.53
2023-07-18T16:12:52.339Z,4.90
2023-07-18T16:14:24.047Z,4.80
2023-07-18T16:15:57.922Z,4.57
2023-07-18T16:17:31.123Z,4.30
2023-07-18T16:19:04.761Z,4.37
2023-07-18T16:20:36.498Z,4.60
2023-07-18T16:22:08.348Z,4.63
2023-07-18T16:23:40.377Z,4.77
2023-07-18T16:25:12.083Z,4.40
2023-07-18T16:26:43.711Z,5.03
2023-07-18T16:28:15.338Z,4.17
2023-07-18T16:29:47.080Z,4.40
2023-07-18T16:31:19.504Z,4.70
2023-07-18T16:32:56.288Z,4.47
2023-07-18T16:34:28.182Z,4.77
2023-07-18T16:35:59.859Z,4.63
2023-07-18T16:37:31.505Z,4.67
2023-07-18T16:39:03.325Z,4.30
2023-07-18T16:40:36.689Z,4.67
2023-07-18T16:42:22.846Z,4.37
2023-07-18T16:43:55.394Z,4.40
2023-07-18T16:45:27.086Z,4.80
2023-07-18T16:46:58.749Z,4.73
2023-07-18T16:48:31.722Z,4.47
2023-07-18T16:50:03.853Z,4.53
2023-07-18T16:51:35.657Z,4.60
2023-07-18T16:53:07.962Z,4.50
2023-07-18T16:54:39.711Z,4.90
2023-07-18T16:56:12.674Z,4.70
2023-07-18T16:57:44.401Z,4.83
2023-07-18T16:59:16.192Z,5.10
2023-07-18T17:00:48.059Z,4.73
2023-07-18T17:02:19.762Z,5.20
2023-07-18T17:03:58.665Z,4.70
2023-07-18T17:05:30.387Z,4.93
2023-07-18T17:07:02.044Z,4.53
2023-07-18T17:08:33.724Z,4.93
2023-07-18T17:10:06.300Z,4.80
2023-07-18T17:11:38.022Z,5.17
2023-07-18T17:13:09.764Z,4.90
2023-07-18T17:14:41.536Z,5.07
2023-07-18T17:16:13.233Z,4.93
2023-07-18T17:17:44.898Z,5.00
2023-07-18T17:19:17.900Z,5.07
2023-07-18T17:20:49.568Z,4.97
2023-07-18T17:22:21.347Z,5.30
2023-07-18T17:23:53.164Z,5.03
2023-07-18T17:25:25.401Z,4.90
2023-07-18T17:26:57.072Z,5.10
2023-07-18T17:28:29.800Z,4.90
2023-07-18T17:30:03.047Z,4.93
2023-07-18T17:31:34.673Z,4.53
2023-07-18T17:33:06.339Z,5.30
2023-07-18T17:34:39.305Z,5.07
2023-07-18T17:36:11.579Z,5.07
2023-07-18T17:37:43.205Z,4.60
2023-07-18T17:39:15.152Z,4.47
2023-07-18T17:40:47.910Z,4.80
2023-07-18T17:42:19.567Z,4.80
2023-07-18T17:43:51.440Z,5.03
2023-07-18T17:45:23.218Z,5.20
2023-07-18T17:46:54.960Z,4.80
2023-07-18T17:48:26.697Z,4.80
2023-07-18T17:49:59.837Z,5.17
2023-07-18T17:51:31.489Z,4.90
2023-07-18T17:53:03.766Z,4.80
2023-07-18T17:54:35.760Z,4.57
2023-07-18T17:56:07.645Z,4.97
2023-07-18T17:57:40.878Z,4.90
2023-07-18T17:59:12.697Z,4.57
2023-07-18T18:00:45.402Z,4.90
2023-07-18T18:02:17.086Z,4.80
2023-07-18T18:03:49.330Z,5.13
2023-07-18T18:05:36.454Z,4.70
2023-07-18T18:07:09.121Z,4.90
2023-07-18T18:08:42.179Z,4.80
2023-07-18T18:10:14.166Z,5.30
2023-07-18T18:11:46.442Z,5.27
2023-07-18T18:13:18.201Z,4.97
2023-07-18T18:14:49.998Z,4.97
2023-07-18T18:16:21.982Z,5.23
2023-07-18T18:17:54.918Z,4.90
2023-07-18T18:19:26.699Z,5.00
2023-07-18T18:21:00.097Z,4.90
2023-07-18T18:22:31.966Z,4.97
2023-07-18T18:24:04.045Z,5.23
2023-07-18T18:25:35.801Z,5.13
2023-07-18T18:27:07.596Z,5.20
2023-07-18T18:28:39.392Z,5.17
2023-07-18T18:30:12.048Z,5.20
2023-07-18T18:31:43.834Z,5.70
2023-07-18T18:33:15.491Z,5.30
2023-07-18T18:35:00.943Z,4.73
2023-07-18T18:36:39.279Z,5.40
2023-07-18T18:38:11.351Z,4.77
2023-07-18T18:39:43.121Z,5.00
2023-07-18T18:41:15.243Z,5.17
2023-07-18T18:42:47.313Z,5.20
2023-07-18T18:44:18.942Z,5.30
2023-07-18T18:45:51.220Z,5.20
2023-07-18T18:47:22.937Z,5.40
2023-07-18T18:48:55.017Z,4.80
2023-07-18T18:50:26.882Z,5.23
2023-07-18T18:52:00.078Z,5.50
2023-07-18T18:53:31.745Z,5.20
2023-07-18T18:55:18.201Z,5.27
2023-07-18T18:56:53.275Z,4.90
2023-07-18T18:58:24.930Z,5.13
2023-07-18T18:59:56.702Z,4.90
2023-07-18T19:01:28.597Z,5.10
2023-07-18T19:03:00.397Z,5.20
2023-07-18T19:04:32.138Z,4.80
2023-07-18T19:06:03.962Z,5.30
2023-07-18T19:07:37.284Z,4.97
2023-07-18T19:09:08.980Z,4.90
2023-07-18T19:10:44.084Z,4.97
2023-07-18T19:12:20.935Z,5.47
2023-07-18T19:13:52.570Z,5.10
2023-07-18T19:15:24.329Z,4.97
2023-07-18T19:16:56.149Z,5.50
2023-07-18T19:18:27.792Z,5.50
2023-07-18T19:19:59.436Z,5.10
2023-07-18T19:21:31.263Z,5.27
2023-07-18T19:23:04.422Z,5.33
2023-07-18T19:24:36.483Z,5.20
2023-07-18T19:26:09.112Z,5.20
2023-07-18T19:27:40.835Z,5.10
2023-07-18T19:29:12.458Z,4.93
2023-07-18T19:30:44.101Z,5.33
2023-07-18T19:32:16.193Z,5.20
2023-07-18T19:33:47.993Z,5.35
2023-07-18T19:35:19.731Z,5.10
2023-07-18T19:36:51.776Z,5.33
2023-07-18T19:38:24.837Z,5.10
2023-07-18T19:39:56.569Z,5.00
2023-07-18T19:41:28.351Z,4.83
2023-07-18T19:43:00.040Z,5.30
2023-07-18T19:44:32.032Z,4.77
2023-07-18T19:46:05.169Z,5.10
2023-07-18T19:47:37.633Z,5.10
2023-07-18T19:49:09.913Z,4.80
2023-07-18T19:50:43.749Z,5.00
2023-07-18T19:52:15.394Z,5.30
2023-07-18T19:53:48.452Z,4.90
2023-07-18T19:55:20.140Z,5.30
2023-07-18T19:56:52.179Z,4.77
2023-07-18T19:58:23.973Z,5.00
2023-07-18T19:59:55.854Z,5.30
2023-07-18T20:01:27.779Z,4.97
2023-07-18T20:02:59.803Z,5.10
2023-07-18T20:04:31.863Z,4.67
2023-07-18T20:06:04.159Z,5.05
2023-07-18T20:07:35.846Z,5.22
2023-07-18T20:09:08.968Z,4.80
2023-07-18T20:10:40.708Z,4.70
2023-07-18T20:12:12.352Z,4.80
2023-07-18T20:13:44.036Z,4.68
2023-07-18T20:15:15.921Z,4.80
2023-07-18T20:16:47.816Z,5.00
2023-07-18T20:18:19.596Z,5.07
2023-07-18T20:19:52.105Z,4.68
2023-07-18T20:21:23.977Z,5.20
2023-07-18T20:22:56.042Z,4.28
2023-07-18T20:24:29.221Z,4.85
2023-07-18T20:26:00.919Z,4.85
2023-07-18T20:27:34.808Z,4.97
2023-07-18T20:29:07.409Z,4.80
2023-07-18T20:30:39.089Z,4.43
2023-07-18T20:32:10.878Z,4.97
2023-07-18T20:33:43.672Z,12.48
2023-07-18T20:35:15.694Z,9.90